createdAt,value
2022-09-14T00:02:07.145Z,5.10
2022-09-14T00:04:34.068Z,7.95
2022-09-14T00:07:00.994Z,6.55
2022-09-14T00:09:27.749Z,6.03
2022-09-14T00:11:56.337Z,5.03
2022-09-14T00:14:23.317Z,5.40
2022-09-14T00:16:51.035Z,6.07
2022-09-14T00:19:19.718Z,6.68
2022-09-14T00:21:50.891Z,6.07
2022-09-14T00:24:18.010Z,3.85
2022-09-14T00:26:44.963Z,6.85
2022-09-14T00:29:13.380Z,7.47
2022-09-14T00:31:40.882Z,8.48
2022-09-14T00:34:11.295Z,5.32
2022-09-14T00:36:39.921Z,8.02
2022-09-14T00:39:07.420Z,6.47
2022-09-14T00:41:36.657Z,7.05
2022-09-14T00:44:05.724Z,5.93
2022-09-14T00:46:37.105Z,6.10
2022-09-14T00:49:07.871Z,8.63
2022-09-14T00:51:37.944Z,4.78
2022-09-14T00:54:06.990Z,4.72
2022-09-14T00:56:34.139Z,6.10
2022-09-14T00:59:06.837Z,8.85
2022-09-14T01:01:35.373Z,4.25
2022-09-14T01:04:02.579Z,8.60
2022-09-14T01:06:36.885Z,7.45
2022-09-14T01:09:15.737Z,5.55
2022-09-14T01:11:53.654Z,6.95
2022-09-14T01:14:28.156Z,7.50
2022-09-14T01:17:05.420Z,7.68
2022-09-14T01:19:45.755Z,14.30
2022-09-14T01:22:18.530Z,8.95
2022-09-14T01:24:49.361Z,7.10
2022-09-14T01:27:35.884Z,6.93
2022-09-14T01:30:08.517Z,7.32
2022-09-14T01:32:40.972Z,5.72
2022-09-14T01:35:16.275Z,5.80
2022-09-14T01:40:17.917Z,6.72
2022-09-14T01:42:49.401Z,5.30
2022-09-14T01:45:19.289Z,9.80
2022-09-14T01:47:49.490Z,4.88
2022-09-14T01:50:21.694Z,7.82
2022-09-14T01:52:53.213Z,6.90
2022-09-14T01:55:25.977Z,4.68
2022-09-14T01:58:02.408Z,9.45
2022-09-14T02:00:31.307Z,3.90
2022-09-14T02:03:05.807Z,7.18
2022-09-14T02:05:37.662Z,6.20
2022-09-14T02:08:04.761Z,7.93
2022-09-14T02:10:32.086Z,7.50
2022-09-14T02:13:00.585Z,5.35
2022-09-14T02:15:27.913Z,6.68
2022-09-14T02:17:55.397Z,7.40
2022-09-14T02:20:29.135Z,6.45
2022-09-14T02:22:55.933Z,9.30
2022-09-14T02:25:23.060Z,7.13
2022-09-14T02:27:49.946Z,7.10
2022-09-14T02:30:20.747Z,5.55
2022-09-14T02:32:58.361Z,7.50
2022-09-14T02:35:32.637Z,5.20
2022-09-14T02:38:08.651Z,5.13
2022-09-14T02:40:39.076Z,6.95
2022-09-14T02:43:19.626Z,7.78
2022-09-14T02:45:55.179Z,6.60
2022-09-14T02:48:29.970Z,7.38
2022-09-14T02:51:03.340Z,9.25
2022-09-14T02:53:37.261Z,5.95
2022-09-14T02:56:08.369Z,5.35
2022-09-14T02:58:37.040Z,6.95
2022-09-14T03:01:07.292Z,6.50
2022-09-14T03:03:35.813Z,5.70
2022-09-14T03:06:03.485Z,6.35
2022-09-14T03:08:30.426Z,5.82
2022-09-14T03:10:57.428Z,6.82
2022-09-14T03:13:24.740Z,8.23
2022-09-14T03:15:51.574Z,6.88
2022-09-14T03:18:20.020Z,6.55
2022-09-14T03:20:46.858Z,5.25
2022-09-14T03:23:14.425Z,6.03
2022-09-14T03:25:43.280Z,5.25
2022-09-14T03:28:11.364Z,7.32
2022-09-14T03:30:38.179Z,7.65
2022-09-14T03:33:05.697Z,8.45
2022-09-14T03:35:34.833Z,5.80
2022-09-14T03:38:03.132Z,4.88
2022-09-14T03:40:30.516Z,7.82
2022-09-14T03:42:57.463Z,4.95
2022-09-14T03:45:24.511Z,7.90
2022-09-14T03:47:51.418Z,6.72
2022-09-14T03:50:19.334Z,5.30
2022-09-14T03:52:47.897Z,6.60
2022-09-14T03:55:15.477Z,5.43
2022-09-14T03:57:42.297Z,6.05
2022-09-14T04:00:10.898Z,7.30
2022-09-14T04:02:41.194Z,4.65
2022-09-14T04:05:09.170Z,5.50
2022-09-14T04:07:36.142Z,6.25
2022-09-14T04:10:05.861Z,7.00
2022-09-14T04:12:35.005Z,6.75
2022-09-14T04:15:02.105Z,5.10
2022-09-14T04:17:29.034Z,5.60
2022-09-14T04:19:55.835Z,6.45
2022-09-14T04:22:22.745Z,6.88
2022-09-14T04:24:49.495Z,4.18
2022-09-14T04:27:18.013Z,5.53
2022-09-14T04:29:45.624Z,5.68
2022-09-14T04:32:12.369Z,9.15
2022-09-14T04:34:39.168Z,5.43
2022-09-14T04:37:05.858Z,6.60
2022-09-14T04:39:32.645Z,6.07
2022-09-14T04:41:59.526Z,5.35
2022-09-14T04:44:27.822Z,7.03
2022-09-14T04:46:55.176Z,5.03
2022-09-14T04:49:22.426Z,4.82
2022-09-14T04:51:49.467Z,6.60
2022-09-14T04:54:17.680Z,4.85
2022-09-14T04:56:45.380Z,5.70
2022-09-14T04:59:12.595Z,4.65
2022-09-14T05:01:42.419Z,6.90
2022-09-14T05:04:10.677Z,5.00
2022-09-14T05:06:40.186Z,6.95
2022-09-14T05:09:10.621Z,4.50
2022-09-14T05:11:37.744Z,6.57
2022-09-14T05:14:05.113Z,8.68
2022-09-14T05:16:33.859Z,6.68
2022-09-14T05:19:05.458Z,6.57
2022-09-14T05:21:34.854Z,5.22
2022-09-14T05:24:03.108Z,3.60
2022-09-14T05:26:31.877Z,6.85
2022-09-14T05:29:00.757Z,3.67
2022-09-14T05:31:29.218Z,4.22
2022-09-14T05:33:56.039Z,5.45
2022-09-14T05:36:24.815Z,7.68
2022-09-14T05:38:52.168Z,4.10
2022-09-14T05:41:19.048Z,4.43
2022-09-14T05:43:46.121Z,10.32
2022-09-14T05:46:14.539Z,4.90
2022-09-14T05:48:41.856Z,9.23
2022-09-14T05:53:39.898Z,4.05
2022-09-14T05:56:08.479Z,6.97
2022-09-14T05:58:36.916Z,6.95
2022-09-14T06:01:08.451Z,6.70
2022-09-14T06:03:35.394Z,5.68
2022-09-14T06:06:02.536Z,4.60
2022-09-14T06:08:29.385Z,7.30
2022-09-14T06:11:02.458Z,9.57
2022-09-14T06:13:29.231Z,5.18
2022-09-14T06:15:56.693Z,5.93
2022-09-14T06:18:23.512Z,8.27
2022-09-14T06:20:51.335Z,8.30
2022-09-14T06:23:18.535Z,4.22
2022-09-14T06:25:45.340Z,4.53
2022-09-14T06:28:13.753Z,9.23
2022-09-14T06:30:43.291Z,3.70
2022-09-14T06:33:10.461Z,7.38
2022-09-14T06:35:37.191Z,6.32
2022-09-14T06:38:04.068Z,8.10
2022-09-14T06:40:31.073Z,10.02
2022-09-14T06:43:02.240Z,7.07
2022-09-14T06:45:32.487Z,7.10
2022-09-14T06:47:59.321Z,8.80
2022-09-14T06:50:26.076Z,9.52
2022-09-14T06:52:52.929Z,11.65
2022-09-14T06:55:19.882Z,7.88
2022-09-14T06:57:48.326Z,4.82
2022-09-14T07:00:15.845Z,7.88
2022-09-14T07:02:44.207Z,8.32
2022-09-14T07:05:11.222Z,9.57
2022-09-14T07:07:38.167Z,5.20
2022-09-14T07:10:06.041Z,5.25
2022-09-14T07:12:32.829Z,5.75
2022-09-14T07:14:59.583Z,7.57
2022-09-14T07:17:26.344Z,7.32
2022-09-14T07:19:54.711Z,5.18
2022-09-14T07:22:21.359Z,7.65
2022-09-14T07:24:48.143Z,4.55
2022-09-14T07:27:14.858Z,6.45
2022-09-14T07:29:41.701Z,10.13
2022-09-14T07:32:08.444Z,5.72
2022-09-14T07:34:35.171Z,5.50
2022-09-14T07:37:03.346Z,4.80
2022-09-14T07:39:30.008Z,4.40
2022-09-14T07:41:57.462Z,3.47
2022-09-14T07:44:24.624Z,4.95
2022-09-14T07:46:51.472Z,3.42
2022-09-14T07:49:18.400Z,6.70
2022-09-14T07:51:45.761Z,2.67
2022-09-14T07:54:16.647Z,5.25
2022-09-14T07:56:43.902Z,5.88
2022-09-14T07:59:34.533Z,9.35
2022-09-14T08:01:58.876Z,6.70
2022-09-14T08:04:26.070Z,3.90
2022-09-14T08:06:52.789Z,3.08
2022-09-14T08:09:21.114Z,3.50
2022-09-14T08:11:47.853Z,3.58
2022-09-14T08:14:15.592Z,5.28
2022-09-14T08:16:42.459Z,5.50
2022-09-14T08:19:13.441Z,3.17
2022-09-14T08:21:45.636Z,6.95
2022-09-14T08:24:15.111Z,2.53
2022-09-14T08:26:43.685Z,2.45
2022-09-14T08:29:12.229Z,1.70
2022-09-14T08:31:39.598Z,2.42
2022-09-14T08:34:07.306Z,2.28
2022-09-14T08:36:36.485Z,2.13
2022-09-14T08:39:03.761Z,5.60
2022-09-14T08:41:33.478Z,3.95
2022-09-14T08:44:10.916Z,5.57
2022-09-14T08:46:41.810Z,1.40
2022-09-14T08:49:13.547Z,4.32
2022-09-14T08:51:40.496Z,4.72
2022-09-14T08:54:09.797Z,2.10
2022-09-14T08:59:23.140Z,3.90
2022-09-14T09:02:01.198Z,3.05
2022-09-14T09:04:50.135Z,3.72
2022-09-14T09:07:21.887Z,3.17
2022-09-14T09:09:50.988Z,2.67
2022-09-14T09:12:20.767Z,4.25
2022-09-14T09:14:53.476Z,4.95
2022-09-14T09:17:25.192Z,4.07
2022-09-14T09:20:03.913Z,1.77
2022-09-14T09:22:38.265Z,1.92
2022-09-14T09:25:10.184Z,1.35
2022-09-14T09:27:37.504Z,3.00
2022-09-14T09:30:07.719Z,1.27
2022-09-14T09:32:36.820Z,1.25
2022-09-14T09:35:19.444Z,1.88
2022-09-14T09:37:53.415Z,2.40
2022-09-14T09:40:27.978Z,1.35
2022-09-14T09:43:10.068Z,2.40
2022-09-14T09:45:51.247Z,7.32
2022-09-14T09:48:22.250Z,2.50
2022-09-14T09:51:02.235Z,1.40
2022-09-14T09:53:29.239Z,1.17
2022-09-14T09:55:57.175Z,3.80
2022-09-14T09:58:30.808Z,3.53
2022-09-14T10:01:01.181Z,1.98
2022-09-14T10:03:34.448Z,2.22
2022-09-14T10:06:04.241Z,2.75
2022-09-14T10:08:35.870Z,1.38
2022-09-14T10:11:03.605Z,0.85
2022-09-14T10:13:36.468Z,2.83
2022-09-14T10:16:08.794Z,4.38
2022-09-14T10:18:35.683Z,4.53
2022-09-14T10:21:09.102Z,3.65
2022-09-14T10:23:37.601Z,4.10
2022-09-14T10:26:24.862Z,3.80
2022-09-14T10:28:52.215Z,1.70
2022-09-14T10:31:27.969Z,3.22
2022-09-14T10:33:56.787Z,1.40
2022-09-14T10:36:29.399Z,4.65
2022-09-14T10:39:00.822Z,2.80
2022-09-14T10:41:35.346Z,2.05
2022-09-14T10:44:28.640Z,5.07
2022-09-14T10:47:13.583Z,2.90
2022-09-14T10:49:53.800Z,1.85
2022-09-14T10:52:26.671Z,2.58
2022-09-14T10:55:19.075Z,4.00
2022-09-14T10:58:00.510Z,1.80
2022-09-14T11:00:31.328Z,4.22
2022-09-14T11:03:32.617Z,4.72
2022-09-14T11:06:08.112Z,2.70
2022-09-14T11:08:44.278Z,1.30
2022-09-14T11:11:42.165Z,1.50
2022-09-14T11:14:21.256Z,3.78
2022-09-14T11:17:02.480Z,3.58
2022-09-14T11:19:38.463Z,1.17
2022-09-14T11:22:12.918Z,3.00
2022-09-14T11:24:44.976Z,4.15
2022-09-14T11:27:16.985Z,2.85
2022-09-14T11:29:51.124Z,2.22
2022-09-14T11:32:22.430Z,1.35
2022-09-14T11:34:56.217Z,2.58
2022-09-14T11:37:31.241Z,1.35
2022-09-14T11:42:34.163Z,9.93
2022-09-14T11:45:05.323Z,2.42
2022-09-14T11:47:38.776Z,5.70
2022-09-14T11:50:18.668Z,3.15
2022-09-14T11:52:45.479Z,1.10
2022-09-14T11:55:17.486Z,2.30
2022-09-14T11:57:45.928Z,1.60
2022-09-14T12:00:45.302Z,2.25
2022-09-14T12:03:18.341Z,3.42
2022-09-14T12:05:47.752Z,2.85
2022-09-14T12:08:37.195Z,4.03
2022-09-14T12:11:28.858Z,5.35
2022-09-14T12:14:28.803Z,3.17
2022-09-14T12:20:32.051Z,2.47
2022-09-14T12:23:27.188Z,6.68
2022-09-14T12:25:58.982Z,1.88
2022-09-14T12:28:39.321Z,1.73
2022-09-14T12:31:11.676Z,6.10
2022-09-14T12:34:01.060Z,1.95
2022-09-14T12:36:58.210Z,3.08
2022-09-14T12:39:28.736Z,2.88
2022-09-14T12:42:03.939Z,4.47
2022-09-14T12:44:40.936Z,2.35
2022-09-14T12:47:53.473Z,1.67
2022-09-14T12:50:22.902Z,2.70
2022-09-14T12:53:00.895Z,2.05
2022-09-14T12:55:45.903Z,2.78
2022-09-14T12:58:44.099Z,4.53
2022-09-14T13:01:25.552Z,7.13
2022-09-14T13:03:54.899Z,4.60
2022-09-14T13:06:23.038Z,5.40
2022-09-14T13:08:53.860Z,3.47
2022-09-14T13:11:26.730Z,4.85
2022-09-14T13:13:55.459Z,4.82
2022-09-14T13:16:34.698Z,6.68
2022-09-14T13:19:03.258Z,4.18
2022-09-14T13:21:30.026Z,2.78
2022-09-14T13:23:56.904Z,4.07
2022-09-14T13:26:27.789Z,3.30
2022-09-14T13:28:56.590Z,2.15
2022-09-14T13:31:28.745Z,2.63
2022-09-14T13:33:56.464Z,2.97
2022-09-14T13:36:25.725Z,4.10
2022-09-14T13:38:54.014Z,3.95
2022-09-14T13:41:23.063Z,2.17
2022-09-14T13:43:54.337Z,2.63
2022-09-14T13:46:22.245Z,2.97
2022-09-14T13:48:49.934Z,4.88
2022-09-14T13:51:16.963Z,4.22
2022-09-14T13:53:48.589Z,3.33
2022-09-14T13:56:17.674Z,2.38
2022-09-14T13:58:45.712Z,6.10
2022-09-14T14:01:25.294Z,5.95
2022-09-14T14:03:52.388Z,2.30
2022-09-14T14:06:26.022Z,5.95
2022-09-14T14:08:56.406Z,3.75
2022-09-14T14:11:29.027Z,7.82
2022-09-14T14:13:55.927Z,2.78
2022-09-14T14:16:26.717Z,4.30
2022-09-14T14:18:54.860Z,3.95
2022-09-14T14:21:31.130Z,2.90
2022-09-14T14:24:17.922Z,4.07
2022-09-14T14:29:18.548Z,2.95
2022-09-14T14:31:47.093Z,4.13
2022-09-14T14:34:19.716Z,2.38
2022-09-14T14:36:48.094Z,4.70
2022-09-14T14:39:14.922Z,2.00
2022-09-14T14:41:43.045Z,2.47
2022-09-14T14:44:15.479Z,4.85
2022-09-14T14:46:42.612Z,3.05
2022-09-14T14:49:12.625Z,2.83
2022-09-14T14:51:39.790Z,1.52
2022-09-14T14:54:06.769Z,2.75
2022-09-14T14:56:34.958Z,2.30
2022-09-14T14:59:02.436Z,1.80
2022-09-14T15:01:29.392Z,7.32
2022-09-14T15:03:56.258Z,2.58
2022-09-14T15:06:27.631Z,4.50
2022-09-14T15:08:55.747Z,2.35
2022-09-14T15:11:22.937Z,2.35
2022-09-14T15:13:50.086Z,3.30
2022-09-14T15:16:17.525Z,1.33
2022-09-14T15:18:44.788Z,2.05
2022-09-14T15:21:11.872Z,2.83
2022-09-14T15:23:40.508Z,0.88
2022-09-14T15:26:07.746Z,1.75
2022-09-14T15:28:38.507Z,3.53
2022-09-14T15:31:07.693Z,4.97
2022-09-14T15:33:34.803Z,4.88
2022-09-14T15:36:03.421Z,2.97
2022-09-14T15:38:30.441Z,6.55
2022-09-14T15:40:58.562Z,4.07
2022-09-14T15:43:25.427Z,1.05
2022-09-14T15:45:52.468Z,2.88
2022-09-14T15:48:19.550Z,2.03
2022-09-14T15:50:48.133Z,0.82
2022-09-14T15:53:17.298Z,2.45
2022-09-14T15:55:45.413Z,7.82
2022-09-14T15:58:13.715Z,3.42
2022-09-14T16:00:44.462Z,2.28
2022-09-14T16:03:11.370Z,1.55
2022-09-14T16:05:38.548Z,1.35
2022-09-14T16:08:05.778Z,3.13
2022-09-14T16:10:32.573Z,1.73
2022-09-14T16:12:59.433Z,3.28
2022-09-14T16:15:27.624Z,3.28
2022-09-14T16:17:55.667Z,5.78
2022-09-14T16:20:23.058Z,2.63
2022-09-14T16:22:50.617Z,5.60
2022-09-14T16:25:17.773Z,1.83
2022-09-14T16:27:45.004Z,1.23
2022-09-14T16:30:12.811Z,0.57
2022-09-14T16:32:41.021Z,2.22
2022-09-14T16:35:08.552Z,1.58
2022-09-14T16:37:35.704Z,1.75
2022-09-14T16:40:03.373Z,3.13
2022-09-14T16:42:30.224Z,3.03
2022-09-14T16:44:57.369Z,1.27
2022-09-14T16:47:25.816Z,2.40
2022-09-14T16:49:54.291Z,5.90
2022-09-14T16:52:21.202Z,1.55
2022-09-14T16:54:47.971Z,1.90
2022-09-14T16:57:14.802Z,2.60
2022-09-14T16:59:41.760Z,3.67
2022-09-14T17:02:11.147Z,3.67
2022-09-14T17:04:38.138Z,1.00
2022-09-14T17:07:06.531Z,0.95
2022-09-14T17:09:34.332Z,3.63
2022-09-14T17:12:01.180Z,2.22
2022-09-14T17:14:31.074Z,1.25
2022-09-14T17:16:58.788Z,0.95
2022-09-14T17:19:25.794Z,4.28
2022-09-14T17:21:53.173Z,2.15
2022-09-14T17:24:21.426Z,2.53
2022-09-14T17:26:48.285Z,3.42
2022-09-14T17:29:15.526Z,2.22
2022-09-14T17:31:44.039Z,3.78
2022-09-14T17:34:13.434Z,4.68
2022-09-14T17:36:40.297Z,1.73
2022-09-14T17:39:11.679Z,2.53
2022-09-14T17:41:40.506Z,5.88
2022-09-14T17:44:10.048Z,0.95
2022-09-14T17:46:43.240Z,2.92
2022-09-14T17:49:16.192Z,2.15
2022-09-14T17:51:45.310Z,2.88
2022-09-14T17:54:12.792Z,1.95
2022-09-14T17:56:40.982Z,2.90
2022-09-14T17:59:11.127Z,1.45
2022-09-14T18:01:38.350Z,2.17
2022-09-14T18:04:07.490Z,3.92
2022-09-14T18:06:37.017Z,2.97
2022-09-14T18:11:32.012Z,1.05
2022-09-14T18:14:00.433Z,2.00
2022-09-14T18:16:27.755Z,2.00
2022-09-14T18:18:57.148Z,4.45
2022-09-14T18:21:24.507Z,2.33
2022-09-14T18:23:52.341Z,1.80
2022-09-14T18:26:20.287Z,2.20
2022-09-14T18:28:47.201Z,2.70
2022-09-14T18:31:17.966Z,3.63
2022-09-14T18:33:48.579Z,1.52
2022-09-14T18:36:15.397Z,2.33
2022-09-14T18:38:42.684Z,3.70
2022-09-14T18:41:11.629Z,2.13
2022-09-14T18:43:41.935Z,4.05
2022-09-14T18:46:08.829Z,3.40
2022-09-14T18:48:37.210Z,2.72
2022-09-14T18:51:05.244Z,6.20
2022-09-14T18:53:32.108Z,5.30
2022-09-14T18:56:02.036Z,2.53
2022-09-14T18:58:32.112Z,2.92
2022-09-14T19:00:59.008Z,1.58
2022-09-14T19:03:26.015Z,1.92
2022-09-14T19:05:54.153Z,7.35
2022-09-14T19:08:21.049Z,3.55
2022-09-14T19:10:47.876Z,2.67
2022-09-14T19:13:14.896Z,3.30
2022-09-14T19:15:41.774Z,1.67
2022-09-14T19:18:09.114Z,2.63
2022-09-14T19:21:04.689Z,4.32
2022-09-14T19:23:27.623Z,3.60
2022-09-14T19:25:54.362Z,2.50
2022-09-14T19:28:21.073Z,5.22
2022-09-14T19:30:48.860Z,1.63
2022-09-14T19:33:15.655Z,1.95
2022-09-14T19:35:42.391Z,5.03
2022-09-14T19:38:09.071Z,3.15
2022-09-14T19:40:37.267Z,5.03
2022-09-14T19:43:04.098Z,5.82
2022-09-14T19:45:31.724Z,4.15
2022-09-14T19:47:59.044Z,4.80
2022-09-14T19:50:25.819Z,4.95
2022-09-14T19:52:53.436Z,3.28
2022-09-14T19:55:20.201Z,3.65
2022-09-14T19:57:48.861Z,5.25
2022-09-14T20:00:18.179Z,3.67
2022-09-14T20:05:12.262Z,3.22
2022-09-14T20:07:39.065Z,5.00
2022-09-14T20:10:06.736Z,3.38
2022-09-14T20:12:33.696Z,3.60
2022-09-14T20:15:02.192Z,2.15
2022-09-14T20:17:29.076Z,3.40
2022-09-14T20:19:56.045Z,4.22
2022-09-14T20:22:23.060Z,6.07
2022-09-14T20:24:50.311Z,6.80
2022-09-14T20:27:17.692Z,3.60
2022-09-14T20:29:44.507Z,3.25
2022-09-14T20:32:12.684Z,3.08
2022-09-14T20:34:39.626Z,3.15
2022-09-14T20:37:06.432Z,3.42
2022-09-14T20:39:36.029Z,6.90
2022-09-14T20:42:03.146Z,4.13
2022-09-14T20:44:30.198Z,4.97
2022-09-14T20:46:57.102Z,3.88
2022-09-14T20:49:25.386Z,4.28
2022-09-14T20:51:57.375Z,3.40
2022-09-14T20:54:24.839Z,4.20
2022-09-14T20:56:51.652Z,5.45
2022-09-14T20:59:19.765Z,8.73
2022-09-14T21:01:49.419Z,6.43
2022-09-14T21:04:18.606Z,7.22
2022-09-14T21:06:49.474Z,4.88
2022-09-14T21:09:18.291Z,7.40
2022-09-14T21:11:46.027Z,6.93
2022-09-14T21:14:13.915Z,4.80
2022-09-14T21:16:43.150Z,5.50
2022-09-14T21:19:13.474Z,6.80
2022-09-14T21:21:40.529Z,4.65
2022-09-14T21:24:12.055Z,6.38
2022-09-14T21:26:42.700Z,5.43
2022-09-14T21:29:14.475Z,6.60
2022-09-14T21:31:41.633Z,3.78
2022-09-14T21:34:10.427Z,6.95
2022-09-14T21:36:39.298Z,4.70
2022-09-14T21:39:09.225Z,6.00
2022-09-14T21:41:36.574Z,6.40
2022-09-14T21:44:03.872Z,2.90
2022-09-14T21:46:31.084Z,7.57
2022-09-14T21:48:58.129Z,4.55
2022-09-14T21:51:26.796Z,7.47
2022-09-14T21:53:55.053Z,5.47
2022-09-14T21:56:25.278Z,5.30
2022-09-14T21:58:53.994Z,5.00
2022-09-14T22:01:24.525Z,5.40
2022-09-14T22:03:52.976Z,3.75
2022-09-14T22:06:22.564Z,6.25
2022-09-14T22:08:50.444Z,5.18
2022-09-14T22:11:23.089Z,8.95
2022-09-14T22:13:54.541Z,5.85
2022-09-14T22:16:23.216Z,6.43
2022-09-14T22:18:52.737Z,9.13
2022-09-14T22:21:21.512Z,8.02
2022-09-14T22:23:53.375Z,11.45
2022-09-14T22:26:21.522Z,7.90
2022-09-14T22:28:49.781Z,10.35
2022-09-14T22:31:20.382Z,10.48
2022-09-14T22:33:47.724Z,13.07
2022-09-14T22:36:15.323Z,11.57
2022-09-14T22:38:42.564Z,12.95
2022-09-14T22:41:11.855Z,11.27
2022-09-14T22:43:40.054Z,15.20
2022-09-14T22:46:08.034Z,13.10
2022-09-14T22:48:37.117Z,16.33
2022-09-14T22:51:05.921Z,15.05
2022-09-14T22:53:34.071Z,15.68
2022-09-14T22:56:07.998Z,19.85
2022-09-14T22:58:35.066Z,16.38
2022-09-14T23:01:06.346Z,20.15
2022-09-14T23:03:33.469Z,17.80
2022-09-14T23:06:02.055Z,16.35
2022-09-14T23:08:29.446Z,16.58
2022-09-14T23:10:56.597Z,18.70
2022-09-14T23:13:23.572Z,20.55
2022-09-14T23:15:50.378Z,17.40
2022-09-14T23:18:17.427Z,17.65
2022-09-14T23:20:45.195Z,17.38
2022-09-14T23:23:13.606Z,17.35
2022-09-14T23:25:41.468Z,16.95
2022-09-14T23:28:11.077Z,17.88
2022-09-14T23:30:38.703Z,15.98
2022-09-14T23:33:05.603Z,18.55
2022-09-14T23:35:36.920Z,10.70
2022-09-14T23:38:04.519Z,10.85
2022-09-14T23:40:32.809Z,8.10
2022-09-14T23:42:59.893Z,6.45
2022-09-14T23:45:27.042Z,6.72
2022-09-14T23:47:53.858Z,8.82
2022-09-14T23:50:20.701Z,7.53
2022-09-14T23:52:47.582Z,12.00
2022-09-14T23:55:14.839Z,4.80
2022-09-14T23:57:43.051Z,6.20
